Time;durP1;ratioP1;P1;durP2;ratioP2;P2;SDS_P1;SDS_P2;PMS_P1;PMS_P2;Temp;Humidity;BMP_temperature;BMP_pressure;BME280_temperature;BME280_humidity;BME280_pressure;Samples;Min_cycle;Max_cycle;Signal;HPM_P1;HPM_P2
2024/04/15 00:00:15;;;;;;;11.07;10.37;;;11.60;99.90;;;;;;5434587;26;20631;-41
2024/04/15 00:02:40;;;;;;;11.70;11.10;;;11.60;1.00;;;;;;5434963;26;20280;-43
2024/04/15 00:05:06;;;;;;;11.27;10.63;;;11.60;1.00;;;;;;5434891;26;20751;-42
2024/04/15 00:07:32;;;;;;;11.60;11.00;;;11.60;1.00;;;;;;5432980;26;20226;-42
2024/04/15 00:09:58;;;;;;;11.73;11.13;;;11.60;1.00;;;;;;5433123;26;20229;-44
2024/04/15 00:12:24;;;;;;;12.40;11.60;;;11.60;1.00;;;;;;5432299;26;20463;-45
2024/04/15 00:14:50;;;;;;;11.70;11.03;;;11.60;1.00;;;;;;5401971;26;20241;-39
2024/04/15 00:17:15;;;;;;;11.90;11.20;;;11.60;1.00;;;;;;5433520;26;20226;-42
2024/04/15 00:19:41;;;;;;;12.20;11.30;;;11.60;1.00;;;;;;5433005;26;20514;-42
2024/04/15 00:22:07;;;;;;;11.67;11.07;;;11.70;1.00;;;;;;5435372;26;20214;-39
2024/04/15 00:24:33;;;;;;;11.60;10.80;;;11.60;1.00;;;;;;5438852;26;20518;-40
2024/04/15 00:26:59;;;;;;;12.27;11.47;;;11.60;1.00;;;;;;5405818;26;20218;-45
2024/04/15 00:29:24;;;;;;;12.37;11.67;;;11.50;99.90;;;;;;5437662;26;20237;-42
2024/04/15 00:31:50;;;;;;;12.00;11.30;;;11.60;99.90;;;;;;5438193;26;20443;-39
2024/04/15 00:34:16;;;;;;;11.60;11.00;;;11.50;99.90;;;;;;5438625;26;20225;-40
2024/04/15 00:36:44;;;;;;;11.40;10.80;;;11.50;99.90;;;;;;5437870;26;20233;-40
2024/04/15 00:39:11;;;;;;;19.63;11.60;;;11.50;1.00;;;;;;5438251;26;20238;-40
2024/04/15 00:41:36;;;;;;;11.30;10.70;;;11.50;1.00;;;;;;5437833;26;20586;-38
2024/04/15 00:44:02;;;;;;;11.70;11.10;;;11.50;1.00;;;;;;5437653;26;20443;-41
2024/04/15 00:46:28;;;;;;;11.73;10.87;;;11.50;1.00;;;;;;5438274;26;20221;-40
2024/04/15 00:48:53;;;;;;;11.90;10.80;;;11.60;99.90;;;;;;5438274;26;20603;-42
2024/04/15 00:51:21;;;;;;;11.47;10.77;;;11.60;99.90;;;;;;5438019;26;20210;-44
2024/04/15 00:53:50;;;;;;;12.17;11.37;;;11.60;1.00;;;;;;5436502;26;20511;-51
2024/04/15 00:56:20;;;;;;;11.50;10.70;;;11.70;1.00;;;;;;5437665;26;20455;-50
2024/04/15 00:58:45;;;;;;;11.53;10.73;;;11.70;1.00;;;;;;5437956;26;20531;-51
2024/04/15 01:01:13;;;;;;;12.03;11.10;;;11.70;99.90;;;;;;5437400;26;20560;-48
2024/04/15 01:03:39;;;;;;;11.67;10.83;;;11.70;1.00;;;;;;5437513;26;20511;-44
2024/04/15 01:06:05;;;;;;;11.90;11.10;;;11.70;1.00;;;;;;5438124;26;20443;-44
2024/04/15 01:08:34;;;;;;;11.97;11.20;;;11.80;1.00;;;;;;5437639;26;20797;-46
2024/04/15 01:11:00;;;;;;;11.67;11.07;;;11.80;1.00;;;;;;5437576;26;20455;-48
2024/04/15 01:13:26;;;;;;;11.43;10.83;;;11.80;1.00;;;;;;5437543;26;20570;-50
2024/04/15 01:15:56;;;;;;;11.37;10.77;;;11.80;1.00;;;;;;5437227;26;20255;-49
2024/04/15 01:18:23;;;;;;;12.47;11.57;;;11.80;1.00;;;;;;5437820;26;20459;-47
2024/04/15 01:20:51;;;;;;;11.20;10.50;;;11.70;1.00;;;;;;5437685;26;20559;-50
2024/04/15 01:23:21;;;;;;;11.30;10.70;;;11.70;70.40;;;;;;5436650;26;21403;-46
2024/04/15 01:25:47;;;;;;;11.63;10.77;;;11.80;99.90;;;;;;5437600;26;20516;-49
2024/04/15 01:28:13;;;;;;;11.40;10.80;;;11.80;99.90;;;;;;5437046;26;20460;-47
2024/04/15 01:30:39;;;;;;;11.50;10.80;;;11.80;99.90;;;;;;5437311;26;20272;-49
2024/04/15 01:33:05;;;;;;;12.33;11.33;;;11.80;99.90;;;;;;5436713;26;20447;-45
2024/04/15 01:35:31;;;;;;;12.20;11.37;;;11.80;1.00;;;;;;5438165;26;20233;-47
2024/04/15 01:37:56;;;;;;;12.30;11.40;;;11.70;1.00;;;;;;5437379;26;20444;-49
2024/04/15 01:40:22;;;;;;;12.00;11.37;;;11.60;9.00;;;;;;5436145;26;20354;-48
2024/04/15 01:42:48;;;;;;;11.40;10.70;;;11.60;70.00;;;;;;5437648;26;20229;-47
2024/04/15 01:45:13;;;;;;;12.03;11.20;;;11.60;1.00;;;;;;5437221;26;20706;-45
2024/04/15 01:47:40;;;;;;;11.63;11.03;;;11.50;1.00;;;;;;5437234;26;20222;-45
2024/04/15 01:50:06;;;;;;;11.40;10.70;;;11.50;99.90;;;;;;5437040;26;20272;-48
2024/04/15 01:52:31;;;;;;;12.27;11.47;;;11.50;99.90;;;;;;5437063;26;20455;-50
2024/04/15 01:54:57;;;;;;;15.63;11.20;;;11.60;1.00;;;;;;5436058;26;20873;-46
2024/04/15 01:57:23;;;;;;;12.10;11.30;;;11.50;99.90;;;;;;5437125;26;20302;-51
2024/04/15 01:59:48;;;;;;;12.60;11.80;;;11.60;1.00;;;;;;5436721;26;20283;-51
2024/04/15 02:02:14;;;;;;;13.47;12.67;;;11.50;99.90;;;;;;5436451;26;20264;-45
2024/04/15 02:04:39;;;;;;;14.27;13.53;;;11.50;1.00;;;;;;5437450;26;20234;-48
2024/04/15 02:07:05;;;;;;;14.97;14.17;;;11.50;1.00;;;;;;5436979;26;20970;-50
2024/04/15 02:09:30;;;;;;;15.10;14.40;;;11.50;1.00;;;;;;5437196;26;20226;-46
2024/04/15 02:11:56;;;;;;;15.47;14.57;;;11.40;1.00;;;;;;5436518;26;20335;-48
2024/04/15 02:14:21;;;;;;;14.67;13.97;;;11.40;1.00;;;;;;5436485;26;20226;-49
2024/04/15 02:16:47;;;;;;;15.13;14.23;;;11.40;1.00;;;;;;5405411;26;20832;-45
2024/04/15 02:19:13;;;;;;;15.47;14.57;;;11.40;1.00;;;;;;5436519;26;20226;-44
2024/04/15 02:21:38;;;;;;;15.40;14.10;;;11.30;1.00;;;;;;5437188;26;20230;-47
2024/04/15 02:24:04;;;;;;;15.43;14.50;;;11.10;1.00;;;;;;5403392;26;20712;-48
2024/04/15 02:26:30;;;;;;;15.37;14.33;;;10.90;1.00;;;;;;5404671;26;20238;-49
2024/04/15 02:28:55;;;;;;;15.00;14.10;;;10.80;1.00;;;;;;5436961;26;21925;-45
2024/04/15 02:31:21;;;;;;;15.37;14.37;;;10.70;1.00;;;;;;5436557;26;20221;-48
2024/04/15 02:33:46;;;;;;;14.73;13.93;;;10.70;1.00;;;;;;5436977;26;20218;-48
2024/04/15 02:36:12;;;;;;;15.20;14.30;;;10.70;1.00;;;;;;5436536;26;20221;-44
2024/04/15 02:38:38;;;;;;;15.60;14.60;;;10.80;8.80;;;;;;5436758;26;20226;-38
2024/04/15 02:41:03;;;;;;;15.10;14.20;;;10.80;19.30;;;;;;5436738;26;20230;-39
2024/04/15 02:43:29;;;;;;;15.30;14.30;;;10.80;24.70;;;;;;5436846;26;20218;-39
2024/04/15 02:45:54;;;;;;;15.60;14.57;;;10.80;28.30;;;;;;5434992;26;20225;-41
2024/04/15 02:48:20;;;;;;;15.63;14.73;;;10.80;27.40;;;;;;5436746;26;20284;-40
2024/04/15 02:50:45;;;;;;;14.50;13.70;;;10.80;31.40;;;;;;5436884;26;20259;-41
2024/04/15 02:53:11;;;;;;;15.27;14.37;;;10.80;40.30;;;;;;5436207;26;21184;-42
2024/04/15 02:55:37;;;;;;;15.90;15.00;;;10.90;46.40;;;;;;5434479;26;20245;-40
2024/04/15 02:58:02;;;;;;;16.37;15.37;;;10.90;40.90;;;;;;5435891;26;20750;-42
2024/04/15 03:00:28;;;;;;;15.53;14.63;;;10.90;45.50;;;;;;5434511;26;20229;-42
2024/04/15 03:02:54;;;;;;;16.73;15.70;;;10.90;36.20;;;;;;5436407;26;20226;-44
2024/04/15 03:05:22;;;;;;;16.80;15.90;;;10.80;16.60;;;;;;5435970;26;20260;-47
2024/04/15 03:07:48;;;;;;;17.17;16.10;;;10.80;4.70;;;;;;5435322;26;20230;-41
2024/04/15 03:10:13;;;;;;;16.30;15.30;;;10.70;1.00;;;;;;5436264;26;20986;-39
2024/04/15 03:12:39;;;;;;;17.20;16.30;;;10.60;1.00;;;;;;5435503;26;20225;-39
2024/04/15 03:15:05;;;;;;;16.77;15.67;;;10.60;1.00;;;;;;5404637;26;20245;-44
2024/04/15 03:17:30;;;;;;;17.93;16.57;;;10.40;1.00;;;;;;5435742;26;20277;-45
2024/04/15 03:19:56;;;;;;;16.30;15.50;;;10.30;1.00;;;;;;5436020;26;20272;-46
2024/04/15 03:22:22;;;;;;;17.40;16.50;;;10.20;1.00;;;;;;5435721;26;20709;-39
2024/04/15 03:24:48;;;;;;;16.93;15.90;;;10.10;1.00;;;;;;5435268;26;20249;-39
2024/04/15 03:27:14;;;;;;;17.07;16.17;;;9.90;1.00;;;;;;5435754;26;20342;-43
2024/04/15 03:29:39;;;;;;;16.60;15.77;;;9.90;1.00;;;;;;5435836;26;20471;-43
2024/04/15 03:32:05;;;;;;;17.37;16.20;;;9.80;8.80;;;;;;5435642;26;20233;-42
2024/04/15 03:34:31;;;;;;;16.63;15.47;;;9.60;23.30;;;;;;5435834;26;20596;-42
2024/04/15 03:36:58;;;;;;;15.43;14.40;;;9.60;39.80;;;;;;5435589;26;20444;-38
2024/04/15 03:39:23;;;;;;;15.83;14.90;;;9.60;66.90;;;;;;5435792;26;20530;-42
2024/04/15 03:41:49;;;;;;;16.30;15.20;;;9.50;92.10;;;;;;5435415;26;20801;-42
2024/04/15 03:44:14;;;;;;;15.87;15.03;;;9.40;99.90;;;;;;5435754;26;20238;-42
2024/04/15 03:46:40;;;;;;;15.27;14.37;;;9.40;99.90;;;;;;5435584;26;20233;-40
2024/04/15 03:49:06;;;;;;;15.33;14.43;;;9.40;99.90;;;;;;5435183;26;20322;-38
2024/04/15 03:51:31;;;;;;;15.43;14.43;;;9.40;99.90;;;;;;5435627;26;20226;-44
2024/04/15 03:53:57;;;;;;;15.83;14.43;;;9.30;99.90;;;;;;5433671;26;20250;-39
2024/04/15 03:56:22;;;;;;;15.43;14.20;;;9.40;99.90;;;;;;5435039;26;20346;-42
2024/04/15 03:58:48;;;;;;;14.83;14.03;;;9.30;99.90;;;;;;5435088;26;20607;-38
2024/04/15 04:01:14;;;;;;;15.13;14.23;;;9.30;99.90;;;;;;5435670;26;20234;-40
2024/04/15 04:03:40;;;;;;;14.97;14.17;;;9.30;99.90;;;;;;5434153;26;20230;-39
2024/04/15 04:06:06;;;;;;;15.17;14.23;;;9.20;99.90;;;;;;5435321;26;20269;-40
2024/04/15 04:08:31;;;;;;;15.90;14.90;;;9.30;99.90;;;;;;5435560;26;20460;-41
2024/04/15 04:11:07;;;;;;;14.97;14.20;;;9.30;99.90;;;;;;5434840;26;20529;-45
2024/04/15 04:13:34;;;;;;;15.90;14.90;;;9.30;99.90;;;;;;5435329;26;20234;-43
2024/04/15 04:16:00;;;;;;;15.93;14.93;;;9.30;99.90;;;;;;5403869;26;20553;-41
2024/04/15 04:18:25;;;;;;;16.83;15.53;;;9.30;99.90;;;;;;5433761;26;20452;-40
2024/04/15 04:20:51;;;;;;;15.53;14.70;;;9.30;99.90;;;;;;5435429;26;20252;-43
2024/04/15 04:23:17;;;;;;;16.87;15.70;;;9.30;99.90;;;;;;5433516;26;20246;-45
2024/04/15 04:25:42;;;;;;;17.00;15.90;;;9.30;99.90;;;;;;5434104;26;20237;-41
2024/04/15 04:28:08;;;;;;;17.50;16.20;;;9.20;99.90;;;;;;5434158;26;20233;-40
2024/04/15 04:30:34;;;;;;;16.40;15.40;;;9.20;99.90;;;;;;5433532;26;20432;-43
2024/04/15 04:33:02;;;;;;;16.47;15.47;;;9.20;99.90;;;;;;5433343;26;20277;-47
2024/04/15 04:35:29;;;;;;;17.00;15.53;;;9.20;99.90;;;;;;5433491;26;20451;-42
2024/04/15 04:37:55;;;;;;;16.50;15.27;;;9.10;99.90;;;;;;5433285;26;20835;-45
2024/04/15 04:40:21;;;;;;;15.33;14.40;;;9.10;99.90;;;;;;5433289;26;20443;-47
2024/04/15 04:42:47;;;;;;;16.37;15.27;;;9.20;99.90;;;;;;5401926;26;20277;-39
2024/04/15 04:45:13;;;;;;;18.47;16.90;;;9.00;99.90;;;;;;5431648;26;21495;-41
2024/04/15 04:47:38;;;;;;;18.43;16.80;;;9.00;99.90;;;;;;5432707;26;20463;-47
2024/04/15 04:50:04;;;;;;;16.20;15.30;;;9.00;99.90;;;;;;5431121;26;20284;-43
2024/04/15 04:52:30;;;;;;;17.03;15.93;;;9.00;99.90;;;;;;5432497;26;20230;-42
2024/04/15 04:54:56;;;;;;;17.70;16.40;;;9.00;99.90;;;;;;5432797;26;20806;-42
2024/04/15 04:57:21;;;;;;;17.07;15.57;;;8.90;99.90;;;;;;5433333;26;20459;-43
2024/04/15 04:59:52;;;;;;;16.97;15.70;;;8.90;99.90;;;;;;5434008;26;20226;-46
2024/04/15 05:02:18;;;;;;;17.10;15.80;;;8.90;99.90;;;;;;5427529;26;20230;-39
2024/04/15 05:04:43;;;;;;;17.30;16.07;;;9.00;99.90;;;;;;5427783;26;20926;-41
2024/04/15 05:07:09;;;;;;;16.30;15.30;;;9.00;99.90;;;;;;5434669;26;20280;-44
2024/04/15 05:09:34;;;;;;;17.00;15.90;;;9.00;99.90;;;;;;5436232;26;20473;-39
2024/04/15 05:12:00;;;;;;;17.90;16.80;;;9.00;99.90;;;;;;5437663;26;20735;-38
2024/04/15 05:14:26;;;;;;;17.57;16.37;;;8.90;99.90;;;;;;5431546;26;20242;-47
2024/04/15 05:16:51;;;;;;;16.23;15.13;;;8.90;99.90;;;;;;5435584;26;20463;-43
2024/04/15 05:19:17;;;;;;;16.60;15.40;;;8.90;99.90;;;;;;5437476;26;20226;-42
2024/04/15 05:21:42;;;;;;;16.60;15.60;;;8.90;99.90;;;;;;5436548;26;20299;-39
2024/04/15 05:24:08;;;;;;;17.67;16.67;;;8.90;99.90;;;;;;5436840;26;20719;-46
2024/04/15 05:26:34;;;;;;;16.87;15.77;;;8.80;99.90;;;;;;5436584;26;20237;-41
2024/04/15 05:28:59;;;;;;;17.30;16.20;;;8.80;99.90;;;;;;5436815;26;20230;-42
2024/04/15 05:31:25;;;;;;;16.17;15.27;;;8.70;99.90;;;;;;5436566;26;20230;-45
2024/04/15 05:33:51;;;;;;;17.50;16.20;;;8.80;99.90;;;;;;5435679;26;20712;-38
2024/04/15 05:36:16;;;;;;;17.40;16.10;;;8.80;99.90;;;;;;5437100;26;20727;-39
2024/04/15 05:38:42;;;;;;;16.87;15.83;;;8.80;99.90;;;;;;5404345;26;20230;-44
2024/04/15 05:41:07;;;;;;;17.10;16.00;;;8.80;99.90;;;;;;5437475;26;20363;-39
2024/04/15 05:43:33;;;;;;;17.10;15.90;;;8.90;99.90;;;;;;5433973;26;20230;-39
2024/04/15 05:45:58;;;;;;;20.00;18.37;;;8.90;99.90;;;;;;5428885;26;20288;-38
2024/04/15 05:48:24;;;;;;;16.60;15.50;;;8.90;99.90;;;;;;5436578;26;20230;-38
2024/04/15 05:50:49;;;;;;;15.27;14.37;;;9.00;99.90;;;;;;5436220;26;20825;-38
2024/04/15 05:53:15;;;;;;;16.37;15.40;;;8.90;99.90;;;;;;5436751;26;20605;-41
2024/04/15 05:55:41;;;;;;;16.17;14.97;;;9.00;99.90;;;;;;5434791;26;20243;-41
2024/04/15 05:58:07;;;;;;;17.10;15.90;;;9.00;99.90;;;;;;5434358;26;20226;-38
2024/04/15 06:00:32;;;;;;;15.43;14.53;;;9.10;99.90;;;;;;5435475;26;20226;-39
2024/04/15 06:02:58;;;;;;;15.60;14.80;;;9.10;99.90;;;;;;5434619;26;20570;-45
2024/04/15 06:05:25;;;;;;;15.50;14.50;;;9.10;99.90;;;;;;5434017;26;20331;-39
2024/04/15 06:07:52;;;;;;;16.37;15.27;;;9.10;99.90;;;;;;5433571;26;20238;-39
2024/04/15 06:10:17;;;;;;;15.07;13.97;;;9.10;99.90;;;;;;5434752;26;20595;-44
2024/04/15 06:12:43;;;;;;;15.50;14.60;;;9.10;99.90;;;;;;5436565;26;21020;-45
2024/04/15 06:15:09;;;;;;;15.70;14.67;;;9.10;99.90;;;;;;5434464;26;20309;-41
2024/04/15 06:17:34;;;;;;;15.00;14.00;;;9.10;99.90;;;;;;5436619;26;20230;-46
2024/04/15 06:20:00;;;;;;;15.60;14.67;;;9.10;99.90;;;;;;5435494;26;20276;-40
2024/04/15 06:22:25;;;;;;;15.60;14.70;;;9.00;99.90;;;;;;5436596;26;20752;-44
2024/04/15 06:24:51;;;;;;;15.60;14.60;;;9.10;99.90;;;;;;5436015;26;20268;-41
2024/04/15 06:27:18;;;;;;;15.60;14.80;;;9.10;99.90;;;;;;5435573;26;20300;-41
2024/04/15 06:29:44;;;;;;;15.33;14.47;;;9.20;99.90;;;;;;5435510;26;20230;-40
2024/04/15 06:32:09;;;;;;;15.27;14.37;;;9.20;99.90;;;;;;5404116;26;20790;-40
2024/04/15 06:34:35;;;;;;;15.97;14.90;;;9.30;99.90;;;;;;5404137;26;20585;-46
2024/04/15 06:37:00;;;;;;;15.70;14.70;;;9.40;99.90;;;;;;5433540;26;20313;-43
2024/04/15 06:39:27;;;;;;;17.00;15.93;;;9.40;99.90;;;;;;5434828;26;20410;-40
2024/04/15 06:41:52;;;;;;;16.50;15.50;;;9.50;99.90;;;;;;5436027;26;20272;-47
2024/04/15 06:44:18;;;;;;;17.50;16.40;;;9.60;99.90;;;;;;5435527;26;20459;-42
2024/04/15 06:46:44;;;;;;;16.57;15.60;;;9.60;99.90;;;;;;5436083;26;20343;-46
2024/04/15 06:49:09;;;;;;;16.27;15.37;;;9.60;99.90;;;;;;5435124;26;20350;-43
2024/04/15 06:51:37;;;;;;;15.80;14.70;;;9.60;99.90;;;;;;5434532;26;20288;-44
2024/04/15 06:54:04;;;;;;;17.23;16.23;;;9.70;99.90;;;;;;5432615;26;20249;-42
2024/04/15 06:56:29;;;;;;;16.60;15.60;;;9.70;99.90;;;;;;5432756;26;20455;-48
2024/04/15 06:58:55;;;;;;;17.27;16.27;;;9.70;99.90;;;;;;5426889;26;20467;-46
2024/04/15 07:01:20;;;;;;;18.57;17.27;;;9.80;99.90;;;;;;5431198;26;20256;-48
2024/04/15 07:03:46;;;;;;;18.10;16.90;;;9.70;99.90;;;;;;5432302;26;20223;-43
2024/04/15 07:06:12;;;;;;;18.30;17.20;;;9.50;99.90;;;;;;5434624;26;20276;-45
2024/04/15 07:08:38;;;;;;;18.20;17.20;;;9.50;99.90;;;;;;5436616;26;20338;-48
2024/04/15 07:11:04;;;;;;;18.50;16.90;;;9.50;99.90;;;;;;5418009;26;20234;-45
2024/04/15 07:13:31;;;;;;;16.50;15.50;;;9.50;99.90;;;;;;5434105;26;20519;-48
2024/04/15 07:15:57;;;;;;;18.00;16.90;;;9.40;99.90;;;;;;5435064;26;20230;-43
2024/04/15 07:18:22;;;;;;;17.47;16.30;;;9.40;99.90;;;;;;5435092;26;20472;-40
2024/04/15 07:20:48;;;;;;;16.23;15.17;;;9.40;99.90;;;;;;5430990;26;21286;-40
2024/04/15 07:23:14;;;;;;;16.60;15.70;;;9.40;99.90;;;;;;5430781;26;20649;-46
2024/04/15 07:25:39;;;;;;;15.93;15.10;;;9.40;99.90;;;;;;5430827;26;20230;-40
2024/04/15 07:28:05;;;;;;;16.00;15.10;;;9.40;99.90;;;;;;5429396;26;20242;-42
2024/04/15 07:30:30;;;;;;;16.37;15.37;;;9.50;99.90;;;;;;5387264;26;20260;-40
2024/04/15 07:32:56;;;;;;;16.83;15.80;;;9.70;99.90;;;;;;5423574;26;20242;-41
2024/04/15 07:35:22;;;;;;;16.60;15.70;;;10.00;99.90;;;;;;5431286;26;20724;-40
2024/04/15 07:37:47;;;;;;;15.90;15.00;;;10.20;99.90;;;;;;5397387;26;20234;-38
2024/04/15 07:40:13;;;;;;;15.23;14.23;;;10.30;91.60;;;;;;5434370;26;20795;-41
2024/04/15 07:42:42;;;;;;;14.50;13.60;;;10.40;84.40;;;;;;5435026;26;20230;-40
2024/04/15 07:45:07;;;;;;;13.63;12.93;;;10.50;52.90;;;;;;5432146;26;20229;-40
2024/04/15 07:47:33;;;;;;;15.00;14.10;;;10.70;31.60;;;;;;5431916;26;21070;-39
2024/04/15 07:49:59;;;;;;;14.30;13.50;;;10.90;8.30;;;;;;5433478;26;20307;-38
2024/04/15 07:52:25;;;;;;;14.13;13.43;;;11.10;8.80;;;;;;5434991;26;20454;-41
2024/04/15 07:54:51;;;;;;;13.07;12.47;;;11.30;19.50;;;;;;5433149;26;20250;-41
2024/04/15 07:57:17;;;;;;;12.90;12.27;;;11.50;19.30;;;;;;5431749;26;20233;-41
2024/04/15 07:59:43;;;;;;;13.13;12.50;;;11.60;1.00;;;;;;5434164;26;20544;-39
2024/04/15 08:02:10;;;;;;;12.37;11.77;;;11.80;1.00;;;;;;5433415;26;20459;-47
2024/04/15 08:04:36;;;;;;;12.70;12.00;;;11.90;1.00;;;;;;5433775;26;20241;-46
2024/04/15 08:07:02;;;;;;;12.80;12.20;;;12.00;1.00;;;;;;5434245;26;22032;-46
2024/04/15 08:09:28;;;;;;;12.23;11.63;;;12.10;1.00;;;;;;5434754;26;20467;-52
2024/04/15 08:11:54;;;;;;;12.63;11.93;;;12.20;1.00;;;;;;5434877;26;20641;-45
2024/04/15 08:14:22;;;;;;;13.90;12.90;;;12.30;1.00;;;;;;5434861;26;21057;-46
2024/04/15 08:16:48;;;;;;;13.17;12.47;;;12.50;99.90;;;;;;5423303;26;20917;-45
2024/04/15 08:19:14;;;;;;;13.57;12.70;;;12.60;99.90;;;;;;5427894;26;20459;-49
2024/04/15 08:21:40;;;;;;;13.00;12.30;;;12.60;1.00;;;;;;5434227;26;20868;-45
2024/04/15 08:24:06;;;;;;;12.20;11.60;;;12.70;1.00;;;;;;5435309;26;20238;-48
2024/04/15 08:26:31;;;;;;;13.23;12.50;;;12.70;1.00;;;;;;5431957;26;20225;-48
2024/04/15 08:28:58;;;;;;;12.40;11.70;;;12.70;99.90;;;;;;5434729;26;21353;-46
2024/04/15 08:31:23;;;;;;;12.17;11.63;;;12.70;99.90;;;;;;5432898;26;20242;-48
2024/04/15 08:33:49;;;;;;;11.27;10.73;;;12.80;99.90;;;;;;5429650;26;20467;-45
2024/04/15 08:36:15;;;;;;;11.70;11.10;;;12.90;99.90;;;;;;5400655;26;20727;-47
2024/04/15 08:38:44;;;;;;;11.47;10.97;;;12.90;1.00;;;;;;5424471;26;20233;-46
2024/04/15 08:41:18;;;;;;;10.90;10.40;;;13.10;1.00;;;;;;5401942;26;20510;-49
2024/04/15 08:43:45;;;;;;;12.70;12.10;;;13.10;1.00;;;;;;5429285;26;20856;-46
2024/04/15 08:46:17;;;;;;;12.53;11.83;;;13.00;99.90;;;;;;5435370;26;20473;-48
2024/04/15 08:48:43;;;;;;;12.13;11.33;;;12.70;99.90;;;;;;5427601;26;20471;-52
2024/04/15 08:51:08;;;;;;;11.80;11.20;;;13.00;1.00;;;;;;5431950;26;20564;-53
2024/04/15 08:53:34;;;;;;;11.40;10.80;;;13.20;1.00;;;;;;5434223;26;20608;-49
2024/04/15 08:56:00;;;;;;;12.70;12.00;;;13.20;1.00;;;;;;5437166;26;20572;-49
2024/04/15 08:58:26;;;;;;;12.10;11.50;;;13.30;99.90;;;;;;5432374;26;20230;-52
2024/04/15 09:00:53;;;;;;;12.60;12.00;;;13.20;99.90;;;;;;5431015;26;20242;-49
2024/04/15 09:03:19;;;;;;;11.30;10.80;;;13.30;99.90;;;;;;5436852;26;20455;-43
2024/04/15 09:05:46;;;;;;;12.37;11.67;;;13.10;90.70;;;;;;5429951;26;20451;-40
2024/04/15 09:08:11;;;;;;;12.53;11.80;;;13.30;99.90;;;;;;5433282;26;20455;-42
2024/04/15 09:10:37;;;;;;;12.53;11.83;;;13.40;64.70;;;;;;5439239;26;20514;-39
2024/04/15 09:13:03;;;;;;;12.60;11.97;;;13.50;1.00;;;;;;5433148;26;20752;-38
2024/04/15 09:15:28;;;;;;;12.33;11.60;;;13.70;1.00;;;;;;5431751;26;20237;-39
2024/04/15 09:17:54;;;;;;;12.70;11.90;;;14.00;37.60;;;;;;5435003;26;20246;-41
2024/04/15 09:20:21;;;;;;;13.10;12.30;;;14.20;3.00;;;;;;5428505;26;20241;-38
2024/04/15 09:22:47;;;;;;;13.10;12.30;;;14.20;1.00;;;;;;5437471;26;20226;-40
2024/04/15 09:25:13;;;;;;;12.87;12.13;;;14.30;1.00;;;;;;5404938;26;20526;-38
2024/04/15 09:27:39;;;;;;;12.60;11.80;;;14.20;1.00;;;;;;5430493;26;20467;-40
2024/04/15 09:30:06;;;;;;;12.60;12.00;;;13.90;1.00;;;;;;5432348;26;20549;-40
2024/04/15 09:32:32;;;;;;;12.60;11.70;;;14.10;1.00;;;;;;5437049;26;20230;-38
2024/04/15 09:34:59;;;;;;;13.53;12.73;;;14.20;1.00;;;;;;5431979;26;20577;-41
2024/04/15 09:37:25;;;;;;;13.07;12.37;;;14.30;1.00;;;;;;5430708;26;20516;-40
2024/04/15 09:39:52;;;;;;;13.10;12.30;;;14.60;1.00;;;;;;5437514;26;20463;-41
2024/04/15 09:42:19;;;;;;;12.67;11.97;;;15.20;1.00;;;;;;5436801;26;20851;-45
2024/04/15 09:44:49;;;;;;;12.87;12.07;;;15.70;1.00;;;;;;5433306;26;20507;-47
2024/04/15 09:47:15;;;;;;;13.23;12.43;;;16.50;1.00;;;;;;5431220;26;20564;-40
2024/04/15 09:49:42;;;;;;;13.73;12.80;;;17.20;1.00;;;;;;5429752;26;20491;-41
2024/04/15 09:52:28;;;;;;;12.20;11.70;;;17.90;1.00;;;;;;5428179;26;20467;-45
2024/04/15 09:55:03;;;;;;;12.63;12.00;;;18.40;99.90;;;;;;5431718;26;20459;-42
2024/04/15 09:57:33;;;;;;;12.63;11.83;;;19.10;99.90;;;;;;5427971;26;20839;-46
2024/04/15 10:00:01;;;;;;;12.63;12.03;;;19.60;99.90;;;;;;5429295;26;20781;-45
2024/04/15 10:02:45;;;;;;;12.20;11.50;;;20.20;99.90;;;;;;5428857;26;20702;-46
2024/04/15 10:05:22;;;;;;;12.80;12.20;;;20.90;99.90;;;;;;5437275;26;21113;-48
2024/04/15 10:07:53;;;;;;;11.60;11.00;;;21.30;99.90;;;;;;5436981;26;20512;-45
2024/04/15 10:10:22;;;;;;;12.00;11.37;;;21.50;99.90;;;;;;5431593;26;21282;-45
2024/04/15 10:12:50;;;;;;;13.30;12.40;;;21.90;99.90;;;;;;5386604;26;20467;-48
2024/04/15 10:15:17;;;;;;;12.70;12.00;;;22.70;99.90;;;;;;5418100;26;20471;-44
2024/04/15 10:18:05;;;;;;;11.37;10.77;;;23.20;99.90;;;;;;5425750;26;20803;-45
2024/04/15 10:20:37;;;;;;;12.73;12.13;;;23.40;99.90;;;;;;5430964;26;20455;-43
2024/04/15 10:23:11;;;;;;;11.57;11.07;;;23.70;99.90;;;;;;5402632;26;20463;-48
2024/04/15 10:25:38;;;;;;;11.73;11.13;;;23.20;99.90;;;;;;5428555;26;20459;-45
2024/04/15 10:28:08;;;;;;;11.87;11.27;;;22.90;99.90;;;;;;5425908;26;20835;-43
2024/04/15 10:30:36;;;;;;;11.70;11.10;;;22.20;99.90;;;;;;5429327;26;20563;-45
2024/04/15 10:33:12;;;;;;;13.10;12.40;;;21.70;99.90;;;;;;5425957;26;20921;-47
2024/04/15 10:35:40;;;;;;;12.73;12.03;;;20.70;99.90;;;;;;5420384;26;20459;-45
2024/04/15 10:38:07;;;;;;;12.90;12.07;;;20.00;99.90;;;;;;5435223;26;20571;-46
2024/04/15 10:40:36;;;;;;;12.97;12.37;;;19.40;99.90;;;;;;5402513;26;20812;-46
2024/04/15 10:43:02;;;;;;;12.53;11.87;;;18.90;99.90;;;;;;5431680;26;20467;-51
2024/04/15 10:45:28;;;;;;;12.47;11.87;;;18.50;99.90;;;;;;5434828;26;20598;-44
2024/04/15 10:47:54;;;;;;;12.70;11.90;;;18.20;99.90;;;;;;5419634;26;20464;-43
2024/04/15 10:50:20;;;;;;;13.67;12.97;;;18.00;99.90;;;;;;5402715;26;20234;-47
2024/04/15 10:52:46;;;;;;;11.90;11.40;;;17.80;99.90;;;;;;5433281;26;20475;-45
2024/04/15 10:55:12;;;;;;;13.57;12.87;;;17.40;99.90;;;;;;5432343;26;20515;-40
2024/04/15 10:57:41;;;;;;;12.80;12.13;;;17.30;99.90;;;;;;5431891;26;20509;-49
2024/04/15 11:00:14;;;;;;;14.33;13.33;;;17.20;99.90;;;;;;5422882;26;20245;-46
2024/04/15 11:02:44;;;;;;;12.67;11.90;;;17.00;99.90;;;;;;5422043;26;20459;-48
2024/04/15 11:05:11;;;;;;;13.40;12.70;;;16.80;99.90;;;;;;5425916;26;20467;-49
2024/04/15 11:07:41;;;;;;;12.10;11.50;;;16.70;99.90;;;;;;5432231;26;20459;-42
2024/04/15 11:10:09;;;;;;;11.80;11.30;;;16.50;99.90;;;;;;5433138;26;20542;-46
2024/04/15 11:12:35;;;;;;;12.50;11.80;;;16.60;99.90;;;;;;5434476;26;20467;-49
2024/04/15 11:15:01;;;;;;;13.70;13.00;;;16.80;99.90;;;;;;5433488;26;20857;-47
2024/04/15 11:17:27;;;;;;;12.80;11.90;;;17.10;99.90;;;;;;5434027;26;20463;-48
2024/04/15 11:20:04;;;;;;;12.53;11.93;;;17.20;99.90;;;;;;5434465;26;20460;-42
2024/04/15 11:22:29;;;;;;;12.60;12.00;;;17.30;99.90;;;;;;5432856;26;20474;-43
2024/04/15 11:24:55;;;;;;;12.20;11.60;;;17.40;99.90;;;;;;5432775;26;21376;-39
2024/04/15 11:27:23;;;;;;;13.13;12.43;;;17.40;99.90;;;;;;5433729;26;20520;-43
2024/04/15 11:29:49;;;;;;;13.37;12.77;;;17.50;99.90;;;;;;5433680;26;20241;-41
2024/04/15 11:32:16;;;;;;;13.43;12.70;;;17.70;99.90;;;;;;5435564;26;21008;-40
2024/04/15 11:34:42;;;;;;;12.70;12.07;;;18.10;99.90;;;;;;5433400;26;20463;-40
2024/04/15 11:37:09;;;;;;;12.83;12.23;;;18.40;99.90;;;;;;5434632;26;20456;-39
2024/04/15 11:39:34;;;;;;;12.67;11.97;;;18.70;99.90;;;;;;5433598;26;20538;-43
2024/04/15 11:42:00;;;;;;;11.77;11.20;;;18.90;99.90;;;;;;5435269;26;20957;-44
2024/04/15 11:44:26;;;;;;;12.27;11.63;;;19.10;99.90;;;;;;5433381;26;20233;-42
2024/04/15 11:46:56;;;;;;;12.07;11.40;;;19.10;99.90;;;;;;5401339;26;20226;-41
2024/04/15 11:49:21;;;;;;;11.40;10.70;;;19.10;99.90;;;;;;5434887;26;20363;-41
2024/04/15 11:51:47;;;;;;;13.10;12.40;;;19.40;99.90;;;;;;5433364;26;20475;-45
2024/04/15 11:54:13;;;;;;;12.20;11.63;;;19.80;99.90;;;;;;5433912;26;20226;-42
2024/04/15 11:56:39;;;;;;;11.27;10.70;;;20.00;99.90;;;;;;5433804;26;20761;-40
2024/04/15 11:59:06;;;;;;;12.43;11.83;;;19.90;99.90;;;;;;5432747;26;20455;-45
2024/04/15 12:01:32;;;;;;;12.53;11.83;;;19.80;99.90;;;;;;5402202;26;20288;-43
2024/04/15 12:03:58;;;;;;;12.10;11.60;;;19.60;99.90;;;;;;5433209;26;20463;-42
2024/04/15 12:06:23;;;;;;;12.07;11.50;;;19.70;99.90;;;;;;5433919;26;20767;-41
2024/04/15 12:08:51;;;;;;;12.00;11.50;;;20.30;99.90;;;;;;5433285;26;20230;-40
2024/04/15 12:11:19;;;;;;;12.17;11.67;;;20.80;99.90;;;;;;5434269;26;20338;-43
2024/04/15 12:13:45;;;;;;;11.37;10.87;;;20.80;99.90;;;;;;5434610;26;21038;-39
2024/04/15 12:16:10;;;;;;;12.03;11.43;;;20.90;99.90;;;;;;5434210;26;20895;-43
2024/04/15 12:18:36;;;;;;;11.67;11.07;;;20.80;99.90;;;;;;5433528;26;20333;-40
2024/04/15 12:21:01;;;;;;;12.30;11.77;;;20.70;99.90;;;;;;5434381;26;20222;-45
2024/04/15 12:23:27;;;;;;;11.20;10.60;;;20.50;99.90;;;;;;5403381;26;20700;-44
2024/04/15 12:25:52;;;;;;;12.00;11.37;;;20.80;99.90;;;;;;5434042;26;20639;-44
2024/04/15 12:28:18;;;;;;;11.63;10.97;;;21.20;99.90;;;;;;5433849;26;20582;-45